sensor_id;sensor_type;location;lat;lon;timestamp;temperature;humidity
24686;DHT22;12804;51.176;4.452;2024-01-30T00:00:13;10.20;99.90
24686;DHT22;12804;51.176;4.452;2024-01-30T00:02:39;10.20;99.90
24686;DHT22;12804;51.176;4.452;2024-01-30T00:05:05;10.20;99.90
24686;DHT22;12804;51.176;4.452;2024-01-30T00:07:31;10.30;99.90
24686;DHT22;12804;51.176;4.452;2024-01-30T00:09:57;10.30;99.90
24686;DHT22;12804;51.176;4.452;2024-01-30T00:12:24;10.30;99.90
24686;DHT22;12804;51.176;4.452;2024-01-30T00:14:49;10.30;99.90
24686;DHT22;12804;51.176;4.452;2024-01-30T00:17:15;10.30;99.90
24686;DHT22;12804;51.176;4.452;2024-01-30T00:19:41;10.30;99.90
24686;DHT22;12804;51.176;4.452;2024-01-30T00:22:07;10.30;99.90
24686;DHT22;12804;51.176;4.452;2024-01-30T00:24:33;10.30;99.90
24686;DHT22;12804;51.176;4.452;2024-01-30T00:26:59;10.30;99.90
24686;DHT22;12804;51.176;4.452;2024-01-30T00:29:25;10.40;99.90
24686;DHT22;12804;51.176;4.452;2024-01-30T00:31:55;10.40;99.90
24686;DHT22;12804;51.176;4.452;2024-01-30T00:34:21;10.40;99.90
24686;DHT22;12804;51.176;4.452;2024-01-30T00:36:47;10.40;99.90
24686;DHT22;12804;51.176;4.452;2024-01-30T00:39:13;10.50;99.90
24686;DHT22;12804;51.176;4.452;2024-01-30T00:41:41;10.50;99.90
24686;DHT22;12804;51.176;4.452;2024-01-30T00:44:07;10.50;99.90
24686;DHT22;12804;51.176;4.452;2024-01-30T00:46:33;10.50;99.90
24686;DHT22;12804;51.176;4.452;2024-01-30T00:48:58;10.50;99.90
24686;DHT22;12804;51.176;4.452;2024-01-30T00:51:24;10.50;99.90
24686;DHT22;12804;51.176;4.452;2024-01-30T00:53:50;10.50;99.90
24686;DHT22;12804;51.176;4.452;2024-01-30T00:56:16;10.50;99.90
24686;DHT22;12804;51.176;4.452;2024-01-30T00:58:43;10.60;99.90
24686;DHT22;12804;51.176;4.452;2024-01-30T01:01:09;10.60;99.90
24686;DHT22;12804;51.176;4.452;2024-01-30T01:03:35;10.50;99.90
24686;DHT22;12804;51.176;4.452;2024-01-30T01:06:01;10.50;99.90
24686;DHT22;12804;51.176;4.452;2024-01-30T01:08:27;10.50;99.90
24686;DHT22;12804;51.176;4.452;2024-01-30T01:10:53;10.50;99.90
24686;DHT22;12804;51.176;4.452;2024-01-30T01:13:19;10.50;99.90
24686;DHT22;12804;51.176;4.452;2024-01-30T01:15:45;10.50;99.90
24686;DHT22;12804;51.176;4.452;2024-01-30T01:18:11;10.50;99.90
24686;DHT22;12804;51.176;4.452;2024-01-30T01:20:37;10.50;99.90
24686;DHT22;12804;51.176;4.452;2024-01-30T01:23:03;10.50;99.90
24686;DHT22;12804;51.176;4.452;2024-01-30T01:25:29;10.50;99.90
24686;DHT22;12804;51.176;4.452;2024-01-30T01:27:55;10.50;99.90
24686;DHT22;12804;51.176;4.452;2024-01-30T01:30:21;10.50;99.90
24686;DHT22;12804;51.176;4.452;2024-01-30T01:32:50;10.50;99.90
24686;DHT22;12804;51.176;4.452;2024-01-30T01:35:23;10.50;99.90
24686;DHT22;12804;51.176;4.452;2024-01-30T01:37:52;10.50;99.90
24686;DHT22;12804;51.176;4.452;2024-01-30T01:40:29;10.50;99.90
24686;DHT22;12804;51.176;4.452;2024-01-30T01:42:55;10.50;99.90
24686;DHT22;12804;51.176;4.452;2024-01-30T01:45:21;10.50;99.90
24686;DHT22;12804;51.176;4.452;2024-01-30T01:47:50;10.40;99.90
24686;DHT22;12804;51.176;4.452;2024-01-30T01:50:17;10.40;99.90
24686;DHT22;12804;51.176;4.452;2024-01-30T01:52:46;10.40;99.90
24686;DHT22;12804;51.176;4.452;2024-01-30T01:55:13;10.40;99.90
24686;DHT22;12804;51.176;4.452;2024-01-30T01:57:41;10.40;99.90
24686;DHT22;12804;51.176;4.452;2024-01-30T02:00:08;10.40;99.90
24686;DHT22;12804;51.176;4.452;2024-01-30T02:02:36;10.30;99.90
24686;DHT22;12804;51.176;4.452;2024-01-30T02:05:03;10.30;99.90
24686;DHT22;12804;51.176;4.452;2024-01-30T02:07:29;10.30;99.90
24686;DHT22;12804;51.176;4.452;2024-01-30T02:09:55;10.30;99.90
24686;DHT22;12804;51.176;4.452;2024-01-30T02:12:21;10.20;99.90
24686;DHT22;12804;51.176;4.452;2024-01-30T02:14:48;10.20;99.90
24686;DHT22;12804;51.176;4.452;2024-01-30T02:17:15;10.20;99.90
24686;DHT22;12804;51.176;4.452;2024-01-30T02:19:41;10.20;99.90
24686;DHT22;12804;51.176;4.452;2024-01-30T02:22:07;10.20;99.90
24686;DHT22;12804;51.176;4.452;2024-01-30T02:24:33;10.20;99.90
24686;DHT22;12804;51.176;4.452;2024-01-30T02:26:59;10.30;99.90
24686;DHT22;12804;51.176;4.452;2024-01-30T02:29:25;10.30;99.90
24686;DHT22;12804;51.176;4.452;2024-01-30T02:31:51;10.30;99.90
24686;DHT22;12804;51.176;4.452;2024-01-30T02:34:18;10.30;99.90
24686;DHT22;12804;51.176;4.452;2024-01-30T02:36:45;10.20;99.90
24686;DHT22;12804;51.176;4.452;2024-01-30T02:39:11;10.20;99.90
24686;DHT22;12804;51.176;4.452;2024-01-30T02:41:37;10.30;99.90
24686;DHT22;12804;51.176;4.452;2024-01-30T02:44:03;10.30;99.90
24686;DHT22;12804;51.176;4.452;2024-01-30T02:46:29;10.40;99.90
24686;DHT22;12804;51.176;4.452;2024-01-30T02:48:55;10.40;99.90
24686;DHT22;12804;51.176;4.452;2024-01-30T02:51:21;10.40;99.90
24686;DHT22;12804;51.176;4.452;2024-01-30T02:53:47;10.40;99.90
24686;DHT22;12804;51.176;4.452;2024-01-30T02:56:13;10.40;99.90
24686;DHT22;12804;51.176;4.452;2024-01-30T02:58:39;10.40;99.90
24686;DHT22;12804;51.176;4.452;2024-01-30T03:01:06;10.50;99.90
24686;DHT22;12804;51.176;4.452;2024-01-30T03:03:32;10.50;99.90
24686;DHT22;12804;51.176;4.452;2024-01-30T03:06:00;10.50;99.90
24686;DHT22;12804;51.176;4.452;2024-01-30T03:08:26;10.50;99.90
24686;DHT22;12804;51.176;4.452;2024-01-30T03:10:52;10.50;99.90
24686;DHT22;12804;51.176;4.452;2024-01-30T03:13:18;10.50;99.90
24686;DHT22;12804;51.176;4.452;2024-01-30T03:15:44;10.60;99.90
24686;DHT22;12804;51.176;4.452;2024-01-30T03:18:09;10.60;99.90
24686;DHT22;12804;51.176;4.452;2024-01-30T03:20:35;10.60;99.90
24686;DHT22;12804;51.176;4.452;2024-01-30T03:23:01;10.70;99.90
24686;DHT22;12804;51.176;4.452;2024-01-30T03:25:27;10.70;99.90
24686;DHT22;12804;51.176;4.452;2024-01-30T03:27:52;10.70;99.90
24686;DHT22;12804;51.176;4.452;2024-01-30T03:30:18;10.70;99.90
24686;DHT22;12804;51.176;4.452;2024-01-30T03:32:44;10.70;99.90
24686;DHT22;12804;51.176;4.452;2024-01-30T03:35:10;10.70;99.90
24686;DHT22;12804;51.176;4.452;2024-01-30T03:37:36;10.70;99.90
24686;DHT22;12804;51.176;4.452;2024-01-30T03:40:02;10.70;99.90
24686;DHT22;12804;51.176;4.452;2024-01-30T03:42:29;10.80;99.90
24686;DHT22;12804;51.176;4.452;2024-01-30T03:44:55;10.80;99.90
24686;DHT22;12804;51.176;4.452;2024-01-30T03:47:21;10.80;99.90
24686;DHT22;12804;51.176;4.452;2024-01-30T03:49:47;10.80;99.90
24686;DHT22;12804;51.176;4.452;2024-01-30T03:52:13;10.80;99.90
24686;DHT22;12804;51.176;4.452;2024-01-30T03:54:39;10.80;99.90
24686;DHT22;12804;51.176;4.452;2024-01-30T03:57:05;10.80;99.90
24686;DHT22;12804;51.176;4.452;2024-01-30T03:59:31;10.80;99.90
24686;DHT22;12804;51.176;4.452;2024-01-30T04:01:57;10.80;99.90
24686;DHT22;12804;51.176;4.452;2024-01-30T04:04:22;10.80;99.90
24686;DHT22;12804;51.176;4.452;2024-01-30T04:06:48;10.80;99.90
24686;DHT22;12804;51.176;4.452;2024-01-30T04:09:14;10.80;99.90
24686;DHT22;12804;51.176;4.452;2024-01-30T04:11:41;10.80;99.90
24686;DHT22;12804;51.176;4.452;2024-01-30T04:14:08;10.80;99.90
24686;DHT22;12804;51.176;4.452;2024-01-30T04:16:34;10.70;99.90
24686;DHT22;12804;51.176;4.452;2024-01-30T04:18:59;10.80;99.90
24686;DHT22;12804;51.176;4.452;2024-01-30T04:21:25;10.80;99.90
24686;DHT22;12804;51.176;4.452;2024-01-30T04:23:51;10.80;99.90
24686;DHT22;12804;51.176;4.452;2024-01-30T04:26:17;10.80;99.90
24686;DHT22;12804;51.176;4.452;2024-01-30T04:28:45;10.80;99.90
24686;DHT22;12804;51.176;4.452;2024-01-30T04:31:11;10.80;99.90
24686;DHT22;12804;51.176;4.452;2024-01-30T04:33:37;10.80;99.90
24686;DHT22;12804;51.176;4.452;2024-01-30T04:36:03;10.80;99.90
24686;DHT22;12804;51.176;4.452;2024-01-30T04:38:29;10.90;99.90
24686;DHT22;12804;51.176;4.452;2024-01-30T04:40:55;10.90;99.90
24686;DHT22;12804;51.176;4.452;2024-01-30T04:43:21;10.80;99.90
24686;DHT22;12804;51.176;4.452;2024-01-30T04:45:47;10.90;99.90
24686;DHT22;12804;51.176;4.452;2024-01-30T04:48:13;10.90;99.90
24686;DHT22;12804;51.176;4.452;2024-01-30T04:50:39;10.90;99.90
24686;DHT22;12804;51.176;4.452;2024-01-30T04:53:05;10.90;99.90
24686;DHT22;12804;51.176;4.452;2024-01-30T04:55:30;10.90;99.90
24686;DHT22;12804;51.176;4.452;2024-01-30T04:57:56;10.90;99.90
24686;DHT22;12804;51.176;4.452;2024-01-30T05:00:22;10.90;99.90
24686;DHT22;12804;51.176;4.452;2024-01-30T05:02:48;10.90;99.90
24686;DHT22;12804;51.176;4.452;2024-01-30T05:05:14;10.90;99.90
24686;DHT22;12804;51.176;4.452;2024-01-30T05:07:41;10.90;99.90
24686;DHT22;12804;51.176;4.452;2024-01-30T05:10:07;10.90;99.90
24686;DHT22;12804;51.176;4.452;2024-01-30T05:12:34;10.90;99.90
24686;DHT22;12804;51.176;4.452;2024-01-30T05:14:59;10.90;99.90
24686;DHT22;12804;51.176;4.452;2024-01-30T05:17:25;10.90;99.90
24686;DHT22;12804;51.176;4.452;2024-01-30T05:19:51;10.90;99.90
24686;DHT22;12804;51.176;4.452;2024-01-30T05:22:17;10.90;99.90
24686;DHT22;12804;51.176;4.452;2024-01-30T05:24:44;10.90;99.90
24686;DHT22;12804;51.176;4.452;2024-01-30T05:27:10;10.90;99.90
24686;DHT22;12804;51.176;4.452;2024-01-30T05:29:39;10.90;99.90
24686;DHT22;12804;51.176;4.452;2024-01-30T05:32:05;10.90;99.90
24686;DHT22;12804;51.176;4.452;2024-01-30T05:34:31;10.90;99.90
24686;DHT22;12804;51.176;4.452;2024-01-30T05:36:57;10.90;99.90
24686;DHT22;12804;51.176;4.452;2024-01-30T05:39:23;10.90;99.90
24686;DHT22;12804;51.176;4.452;2024-01-30T05:41:49;10.90;99.90
24686;DHT22;12804;51.176;4.452;2024-01-30T05:44:15;10.90;99.90
24686;DHT22;12804;51.176;4.452;2024-01-30T05:46:41;10.90;99.90
24686;DHT22;12804;51.176;4.452;2024-01-30T05:49:07;10.90;99.90
24686;DHT22;12804;51.176;4.452;2024-01-30T05:51:33;10.90;99.90
24686;DHT22;12804;51.176;4.452;2024-01-30T05:53:59;10.90;99.90
24686;DHT22;12804;51.176;4.452;2024-01-30T05:56:24;10.90;99.90
24686;DHT22;12804;51.176;4.452;2024-01-30T05:58:50;10.90;99.90
24686;DHT22;12804;51.176;4.452;2024-01-30T06:01:16;10.90;99.90
24686;DHT22;12804;51.176;4.452;2024-01-30T06:03:43;10.90;99.90
24686;DHT22;12804;51.176;4.452;2024-01-30T06:06:09;10.90;99.90
24686;DHT22;12804;51.176;4.452;2024-01-30T06:08:35;10.90;99.90
24686;DHT22;12804;51.176;4.452;2024-01-30T06:11:01;10.90;99.90
24686;DHT22;12804;51.176;4.452;2024-01-30T06:13:27;10.90;99.90
24686;DHT22;12804;51.176;4.452;2024-01-30T06:15:53;10.90;99.90
24686;DHT22;12804;51.176;4.452;2024-01-30T06:18:18;10.80;99.90
24686;DHT22;12804;51.176;4.452;2024-01-30T06:20:44;10.90;99.90
24686;DHT22;12804;51.176;4.452;2024-01-30T06:23:10;10.90;99.90
24686;DHT22;12804;51.176;4.452;2024-01-30T06:25:38;10.90;99.90
24686;DHT22;12804;51.176;4.452;2024-01-30T06:28:04;10.90;99.90
24686;DHT22;12804;51.176;4.452;2024-01-30T06:30:30;10.90;99.90
24686;DHT22;12804;51.176;4.452;2024-01-30T06:32:56;10.90;99.90
24686;DHT22;12804;51.176;4.452;2024-01-30T06:35:22;10.90;99.90
24686;DHT22;12804;51.176;4.452;2024-01-30T06:37:48;11.00;99.90
24686;DHT22;12804;51.176;4.452;2024-01-30T06:40:14;11.00;99.90
24686;DHT22;12804;51.176;4.452;2024-01-30T06:42:39;11.00;99.90
24686;DHT22;12804;51.176;4.452;2024-01-30T06:45:06;11.00;99.90
24686;DHT22;12804;51.176;4.452;2024-01-30T06:47:32;11.00;99.90
24686;DHT22;12804;51.176;4.452;2024-01-30T06:49:58;11.00;99.90
24686;DHT22;12804;51.176;4.452;2024-01-30T06:52:23;11.00;99.90
24686;DHT22;12804;51.176;4.452;2024-01-30T06:54:52;11.00;99.90
24686;DHT22;12804;51.176;4.452;2024-01-30T06:57:18;11.00;99.90
24686;DHT22;12804;51.176;4.452;2024-01-30T06:59:44;11.10;99.90
24686;DHT22;12804;51.176;4.452;2024-01-30T07:02:10;11.20;99.90
24686;DHT22;12804;51.176;4.452;2024-01-30T07:04:36;11.30;99.90
24686;DHT22;12804;51.176;4.452;2024-01-30T07:07:03;11.30;99.90
24686;DHT22;12804;51.176;4.452;2024-01-30T07:09:31;11.30;99.90
24686;DHT22;12804;51.176;4.452;2024-01-30T07:11:56;11.30;99.90
24686;DHT22;12804;51.176;4.452;2024-01-30T07:14:25;11.30;99.90
24686;DHT22;12804;51.176;4.452;2024-01-30T07:16:51;11.40;99.90
24686;DHT22;12804;51.176;4.452;2024-01-30T07:19:17;11.40;99.90
24686;DHT22;12804;51.176;4.452;2024-01-30T07:21:43;11.40;99.90
24686;DHT22;12804;51.176;4.452;2024-01-30T07:24:09;11.40;99.90
24686;DHT22;12804;51.176;4.452;2024-01-30T07:26:35;11.40;99.90
24686;DHT22;12804;51.176;4.452;2024-01-30T07:29:01;11.50;99.90
24686;DHT22;12804;51.176;4.452;2024-01-30T07:31:27;11.40;99.90
24686;DHT22;12804;51.176;4.452;2024-01-30T07:33:53;11.40;99.90
24686;DHT22;12804;51.176;4.452;2024-01-30T07:36:20;11.40;99.90
24686;DHT22;12804;51.176;4.452;2024-01-30T07:38:46;11.40;99.90
24686;DHT22;12804;51.176;4.452;2024-01-30T07:41:11;11.60;99.90
24686;DHT22;12804;51.176;4.452;2024-01-30T07:43:38;11.60;96.80
24686;DHT22;12804;51.176;4.452;2024-01-30T07:46:04;11.50;99.90
24686;DHT22;12804;51.176;4.452;2024-01-30T07:48:33;11.40;99.90
24686;DHT22;12804;51.176;4.452;2024-01-30T07:51:00;11.40;99.90
24686;DHT22;12804;51.176;4.452;2024-01-30T07:53:25;11.40;99.90
24686;DHT22;12804;51.176;4.452;2024-01-30T07:55:52;11.40;99.90
24686;DHT22;12804;51.176;4.452;2024-01-30T07:58:18;11.40;99.90
24686;DHT22;12804;51.176;4.452;2024-01-30T08:00:44;11.40;99.90
24686;DHT22;12804;51.176;4.452;2024-01-30T08:03:10;11.40;99.90
24686;DHT22;12804;51.176;4.452;2024-01-30T08:05:37;11.40;99.90
24686;DHT22;12804;51.176;4.452;2024-01-30T08:08:04;11.30;99.90
24686;DHT22;12804;51.176;4.452;2024-01-30T08:10:30;11.30;99.90
24686;DHT22;12804;51.176;4.452;2024-01-30T08:12:56;11.40;99.90
24686;DHT22;12804;51.176;4.452;2024-01-30T08:15:22;11.40;99.90
24686;DHT22;12804;51.176;4.452;2024-01-30T08:17:48;11.40;99.90
24686;DHT22;12804;51.176;4.452;2024-01-30T08:20:14;11.40;99.90
24686;DHT22;12804;51.176;4.452;2024-01-30T08:22:40;11.50;99.90
24686;DHT22;12804;51.176;4.452;2024-01-30T08:25:06;11.50;99.90
24686;DHT22;12804;51.176;4.452;2024-01-30T08:27:33;11.50;99.90
24686;DHT22;12804;51.176;4.452;2024-01-30T08:30:01;11.50;99.90
24686;DHT22;12804;51.176;4.452;2024-01-30T08:32:27;11.50;99.90
24686;DHT22;12804;51.176;4.452;2024-01-30T08:34:53;11.50;99.90
24686;DHT22;12804;51.176;4.452;2024-01-30T08:37:19;11.50;99.90
24686;DHT22;12804;51.176;4.452;2024-01-30T08:39:45;11.50;99.90
24686;DHT22;12804;51.176;4.452;2024-01-30T08:42:10;11.50;99.90
24686;DHT22;12804;51.176;4.452;2024-01-30T08:44:37;11.50;99.90
24686;DHT22;12804;51.176;4.452;2024-01-30T08:47:02;11.60;99.90
24686;DHT22;12804;51.176;4.452;2024-01-30T08:49:28;11.60;99.90
24686;DHT22;12804;51.176;4.452;2024-01-30T08:51:54;11.60;99.90
24686;DHT22;12804;51.176;4.452;2024-01-30T08:54:20;11.50;99.90
24686;DHT22;12804;51.176;4.452;2024-01-30T08:56:46;11.60;99.90
24686;DHT22;12804;51.176;4.452;2024-01-30T08:59:12;11.50;99.90
24686;DHT22;12804;51.176;4.452;2024-01-30T09:01:38;11.50;99.90
24686;DHT22;12804;51.176;4.452;2024-01-30T09:04:04;11.50;99.90
24686;DHT22;12804;51.176;4.452;2024-01-30T09:06:29;11.60;99.90
24686;DHT22;12804;51.176;4.452;2024-01-30T09:08:56;11.60;99.90
24686;DHT22;12804;51.176;4.452;2024-01-30T09:11:23;11.60;99.90
24686;DHT22;12804;51.176;4.452;2024-01-30T09:13:49;11.70;99.90
24686;DHT22;12804;51.176;4.452;2024-01-30T09:16:15;11.60;99.90
24686;DHT22;12804;51.176;4.452;2024-01-30T09:18:42;11.70;99.90
24686;DHT22;12804;51.176;4.452;2024-01-30T09:21:07;11.60;99.90
24686;DHT22;12804;51.176;4.452;2024-01-30T09:23:33;11.60;99.90
24686;DHT22;12804;51.176;4.452;2024-01-30T09:25:59;11.70;99.90
24686;DHT22;12804;51.176;4.452;2024-01-30T09:28:25;11.70;99.90
24686;DHT22;12804;51.176;4.452;2024-01-30T09:30:52;11.80;99.90
24686;DHT22;12804;51.176;4.452;2024-01-30T09:33:18;11.90;99.90
24686;DHT22;12804;51.176;4.452;2024-01-30T09:35:44;12.00;99.90
24686;DHT22;12804;51.176;4.452;2024-01-30T09:38:10;11.90;99.90
24686;DHT22;12804;51.176;4.452;2024-01-30T09:40:36;12.00;99.90
24686;DHT22;12804;51.176;4.452;2024-01-30T09:43:02;12.00;99.90
24686;DHT22;12804;51.176;4.452;2024-01-30T09:45:28;12.00;99.90
24686;DHT22;12804;51.176;4.452;2024-01-30T09:47:54;11.90;99.90
24686;DHT22;12804;51.176;4.452;2024-01-30T09:50:21;11.90;99.90
24686;DHT22;12804;51.176;4.452;2024-01-30T09:52:48;12.00;99.90
24686;DHT22;12804;51.176;4.452;2024-01-30T09:55:14;12.10;99.90
24686;DHT22;12804;51.176;4.452;2024-01-30T09:57:41;11.80;99.90
24686;DHT22;12804;51.176;4.452;2024-01-30T10:00:08;11.70;99.90
24686;DHT22;12804;51.176;4.452;2024-01-30T10:02:40;11.60;99.90
24686;DHT22;12804;51.176;4.452;2024-01-30T10:05:07;11.60;99.90
24686;DHT22;12804;51.176;4.452;2024-01-30T10:07:33;11.70;99.90
24686;DHT22;12804;51.176;4.452;2024-01-30T10:09:59;11.60;99.90
24686;DHT22;12804;51.176;4.452;2024-01-30T10:12:29;11.70;99.90
24686;DHT22;12804;51.176;4.452;2024-01-30T10:14:56;11.80;99.90
24686;DHT22;12804;51.176;4.452;2024-01-30T10:17:25;11.80;99.90
24686;DHT22;12804;51.176;4.452;2024-01-30T10:19:52;11.90;99.90
24686;DHT22;12804;51.176;4.452;2024-01-30T10:22:18;11.90;99.90
24686;DHT22;12804;51.176;4.452;2024-01-30T10:24:45;11.90;99.90
24686;DHT22;12804;51.176;4.452;2024-01-30T10:27:11;12.00;99.90
24686;DHT22;12804;51.176;4.452;2024-01-30T10:29:37;12.00;99.90
24686;DHT22;12804;51.176;4.452;2024-01-30T10:32:04;12.20;99.90
24686;DHT22;12804;51.176;4.452;2024-01-30T10:34:31;12.20;99.90
24686;DHT22;12804;51.176;4.452;2024-01-30T10:37:11;12.20;97.70
24686;DHT22;12804;51.176;4.452;2024-01-30T10:39:46;12.20;98.30
24686;DHT22;12804;51.176;4.452;2024-01-30T10:42:16;12.40;92.20
24686;DHT22;12804;51.176;4.452;2024-01-30T10:47:28;12.30;25.80
24686;DHT22;12804;51.176;4.452;2024-01-30T10:49:55;12.00;24.40
24686;DHT22;12804;51.176;4.452;2024-01-30T10:52:23;12.00;4.70
24686;DHT22;12804;51.176;4.452;2024-01-30T10:54:52;12.00;1.00
24686;DHT22;12804;51.176;4.452;2024-01-30T10:57:18;12.20;1.00
24686;DHT22;12804;51.176;4.452;2024-01-30T10:59:45;12.10;1.00
24686;DHT22;12804;51.176;4.452;2024-01-30T11:02:13;12.00;1.00
24686;DHT22;12804;51.176;4.452;2024-01-30T11:04:41;11.90;1.00
24686;DHT22;12804;51.176;4.452;2024-01-30T11:07:29;11.70;1.00
24686;DHT22;12804;51.176;4.452;2024-01-30T11:12:27;11.30;1.00
24686;DHT22;12804;51.176;4.452;2024-01-30T11:15:15;11.40;1.00
24686;DHT22;12804;51.176;4.452;2024-01-30T11:17:53;11.90;1.00
24686;DHT22;12804;51.176;4.452;2024-01-30T11:20:25;12.40;1.00
24686;DHT22;12804;51.176;4.452;2024-01-30T11:22:53;12.90;1.00
24686;DHT22;12804;51.176;4.452;2024-01-30T11:25:20;13.40;1.00
24686;DHT22;12804;51.176;4.452;2024-01-30T11:27:50;13.60;99.90
24686;DHT22;12804;51.176;4.452;2024-01-30T11:30:25;13.60;99.90
24686;DHT22;12804;51.176;4.452;2024-01-30T11:33:12;13.40;99.90
24686;DHT22;12804;51.176;4.452;2024-01-30T11:35:40;13.00;1.00
24686;DHT22;12804;51.176;4.452;2024-01-30T11:38:07;12.70;1.00
24686;DHT22;12804;51.176;4.452;2024-01-30T11:40:34;12.80;1.00
24686;DHT22;12804;51.176;4.452;2024-01-30T11:43:02;13.00;99.90
24686;DHT22;12804;51.176;4.452;2024-01-30T11:45:28;13.30;99.90
24686;DHT22;12804;51.176;4.452;2024-01-30T11:47:55;13.70;1.00
24686;DHT22;12804;51.176;4.452;2024-01-30T11:50:21;13.30;1.00
24686;DHT22;12804;51.176;4.452;2024-01-30T11:52:47;13.00;1.00
24686;DHT22;12804;51.176;4.452;2024-01-30T11:55:14;12.80;94.30
24686;DHT22;12804;51.176;4.452;2024-01-30T11:57:40;12.90;99.90
24686;DHT22;12804;51.176;4.452;2024-01-30T12:00:13;13.00;99.90
24686;DHT22;12804;51.176;4.452;2024-01-30T12:02:40;12.80;99.90
24686;DHT22;12804;51.176;4.452;2024-01-30T12:05:06;12.90;99.90
24686;DHT22;12804;51.176;4.452;2024-01-30T12:07:32;12.80;99.90
24686;DHT22;12804;51.176;4.452;2024-01-30T12:10:00;12.80;1.00
24686;DHT22;12804;51.176;4.452;2024-01-30T12:12:26;12.90;1.00
24686;DHT22;12804;51.176;4.452;2024-01-30T12:14:53;12.80;1.00
24686;DHT22;12804;51.176;4.452;2024-01-30T12:17:30;12.80;23.00
24686;DHT22;12804;51.176;4.452;2024-01-30T12:20:22;12.80;99.90
24686;DHT22;12804;51.176;4.452;2024-01-30T12:22:49;12.80;99.90
24686;DHT22;12804;51.176;4.452;2024-01-30T12:25:17;12.60;99.90
24686;DHT22;12804;51.176;4.452;2024-01-30T12:27:45;12.50;99.90
24686;DHT22;12804;51.176;4.452;2024-01-30T12:30:13;12.40;99.90
24686;DHT22;12804;51.176;4.452;2024-01-30T12:32:44;12.20;1.00
24686;DHT22;12804;51.176;4.452;2024-01-30T12:37:40;12.20;1.00
24686;DHT22;12804;51.176;4.452;2024-01-30T12:40:10;12.30;1.00
24686;DHT22;12804;51.176;4.452;2024-01-30T12:42:37;12.40;1.00
24686;DHT22;12804;51.176;4.452;2024-01-30T12:45:03;12.20;1.00
24686;DHT22;12804;51.176;4.452;2024-01-30T12:47:32;12.20;1.00
24686;DHT22;12804;51.176;4.452;2024-01-30T12:49:58;12.10;1.00
24686;DHT22;12804;51.176;4.452;2024-01-30T12:52:24;12.10;1.00
24686;DHT22;12804;51.176;4.452;2024-01-30T12:54:50;12.00;1.00
24686;DHT22;12804;51.176;4.452;2024-01-30T12:57:17;12.10;1.00
24686;DHT22;12804;51.176;4.452;2024-01-30T12:59:44;12.30;1.00
24686;DHT22;12804;51.176;4.452;2024-01-30T13:02:11;12.10;1.00
24686;DHT22;12804;51.176;4.452;2024-01-30T13:04:38;12.00;1.00
24686;DHT22;12804;51.176;4.452;2024-01-30T13:07:04;12.10;1.00
24686;DHT22;12804;51.176;4.452;2024-01-30T13:09:30;12.00;1.00
24686;DHT22;12804;51.176;4.452;2024-01-30T13:11:59;12.00;1.00
24686;DHT22;12804;51.176;4.452;2024-01-30T13:14:28;12.00;1.00
24686;DHT22;12804;51.176;4.452;2024-01-30T13:16:54;11.90;1.00
24686;DHT22;12804;51.176;4.452;2024-01-30T13:19:20;11.80;1.00
24686;DHT22;12804;51.176;4.452;2024-01-30T13:21:46;11.70;1.00
24686;DHT22;12804;51.176;4.452;2024-01-30T13:24:12;11.50;1.00
24686;DHT22;12804;51.176;4.452;2024-01-30T13:26:37;11.40;1.00
24686;DHT22;12804;51.176;4.452;2024-01-30T13:29:03;11.40;1.00
24686;DHT22;12804;51.176;4.452;2024-01-30T13:31:29;11.20;1.00
24686;DHT22;12804;51.176;4.452;2024-01-30T13:33:55;11.20;1.00
24686;DHT22;12804;51.176;4.452;2024-01-30T13:36:22;11.40;1.00
24686;DHT22;12804;51.176;4.452;2024-01-30T13:38:48;11.40;1.00
24686;DHT22;12804;51.176;4.452;2024-01-30T13:41:14;11.30;1.00
24686;DHT22;12804;51.176;4.452;2024-01-30T13:43:40;11.10;1.00
24686;DHT22;12804;51.176;4.452;2024-01-30T13:46:05;10.90;1.00
24686;DHT22;12804;51.176;4.452;2024-01-30T13:48:32;10.80;1.00
24686;DHT22;12804;51.176;4.452;2024-01-30T13:50:58;10.70;1.00
24686;DHT22;12804;51.176;4.452;2024-01-30T13:53:24;10.80;1.00
24686;DHT22;12804;51.176;4.452;2024-01-30T13:55:50;10.70;1.00
24686;DHT22;12804;51.176;4.452;2024-01-30T13:58:16;10.80;1.00
24686;DHT22;12804;51.176;4.452;2024-01-30T14:00:42;10.80;1.00
24686;DHT22;12804;51.176;4.452;2024-01-30T14:03:08;10.70;1.00
24686;DHT22;12804;51.176;4.452;2024-01-30T14:05:33;10.70;1.00
24686;DHT22;12804;51.176;4.452;2024-01-30T14:08:00;10.80;1.00
24686;DHT22;12804;51.176;4.452;2024-01-30T14:10:26;10.70;1.00
24686;DHT22;12804;51.176;4.452;2024-01-30T14:12:52;10.70;1.00
24686;DHT22;12804;51.176;4.452;2024-01-30T14:15:18;10.70;1.00
24686;DHT22;12804;51.176;4.452;2024-01-30T14:17:45;10.50;1.00
24686;DHT22;12804;51.176;4.452;2024-01-30T14:20:11;10.50;1.00
24686;DHT22;12804;51.176;4.452;2024-01-30T14:22:37;10.70;1.00
24686;DHT22;12804;51.176;4.452;2024-01-30T14:25:04;10.70;1.00
24686;DHT22;12804;51.176;4.452;2024-01-30T14:27:31;10.60;1.00
24686;DHT22;12804;51.176;4.452;2024-01-30T14:29:57;10.60;1.00
24686;DHT22;12804;51.176;4.452;2024-01-30T14:32:24;10.50;1.00
24686;DHT22;12804;51.176;4.452;2024-01-30T14:34:50;10.60;1.00
24686;DHT22;12804;51.176;4.452;2024-01-30T14:37:18;10.70;1.00
24686;DHT22;12804;51.176;4.452;2024-01-30T14:39:44;10.60;1.00
24686;DHT22;12804;51.176;4.452;2024-01-30T14:42:10;10.40;1.00
24686;DHT22;12804;51.176;4.452;2024-01-30T14:44:36;10.50;1.00
24686;DHT22;12804;51.176;4.452;2024-01-30T14:47:02;10.50;1.00
24686;DHT22;12804;51.176;4.452;2024-01-30T14:49:28;10.30;14.30
24686;DHT22;12804;51.176;4.452;2024-01-30T14:51:54;10.10;22.00
24686;DHT22;12804;51.176;4.452;2024-01-30T14:54:20;10.10;27.80
24686;DHT22;12804;51.176;4.452;2024-01-30T14:56:46;10.10;22.40
24686;DHT22;12804;51.176;4.452;2024-01-30T14:59:12;10.20;19.50
24686;DHT22;12804;51.176;4.452;2024-01-30T15:01:38;10.30;20.60
24686;DHT22;12804;51.176;4.452;2024-01-30T15:04:03;10.30;13.90
24686;DHT22;12804;51.176;4.452;2024-01-30T15:06:30;10.20;21.90
24686;DHT22;12804;51.176;4.452;2024-01-30T15:08:56;10.20;23.50
24686;DHT22;12804;51.176;4.452;2024-01-30T15:11:21;10.20;22.80
24686;DHT22;12804;51.176;4.452;2024-01-30T15:13:47;10.30;19.20
24686;DHT22;12804;51.176;4.452;2024-01-30T15:16:13;10.30;22.10
24686;DHT22;12804;51.176;4.452;2024-01-30T15:18:39;10.20;24.40
24686;DHT22;12804;51.176;4.452;2024-01-30T15:21:05;10.30;24.30
24686;DHT22;12804;51.176;4.452;2024-01-30T15:23:31;10.20;26.90
24686;DHT22;12804;51.176;4.452;2024-01-30T15:25:57;10.30;17.00
24686;DHT22;12804;51.176;4.452;2024-01-30T15:28:34;10.40;2.20
24686;DHT22;12804;51.176;4.452;2024-01-30T15:31:02;10.20;16.80
24686;DHT22;12804;51.176;4.452;2024-01-30T15:33:28;10.20;24.20
24686;DHT22;12804;51.176;4.452;2024-01-30T15:35:54;10.10;30.80
24686;DHT22;12804;51.176;4.452;2024-01-30T15:38:20;10.20;30.70